Time;durP1;ratioP1;P1;durP2;ratioP2;P2;SDS_P1;SDS_P2;PMS_P1;PMS_P2;Temp;Humidity;BMP_temperature;BMP_pressure;BME280_temperature;BME280_humidity;BME280_pressure;Samples;Min_cycle;Max_cycle;Signal;HPM_P1;HPM_P2
2023/04/12 00:00:53;;;;;;;12.38;5.28;;;;;;;;;;4910561;29;20043;-76
2023/04/12 00:03:23;;;;;;;12.15;5.78;;;;;;;;;;4911637;29;20402;-75
2023/04/12 00:05:53;;;;;;;11.73;5.80;;;;;;;;;;4925868;29;20098;-75
2023/04/12 00:08:25;;;;;;;10.63;5.07;;;;;;;;;;4909798;29;20051;-76
2023/04/12 00:10:52;;;;;;;11.05;5.07;;;;;;;;;;4912455;29;20044;-77
2023/04/12 00:13:21;;;;;;;10.88;4.85;;;;;;;;;;4911940;29;20127;-76
2023/04/12 00:15:48;;;;;;;11.25;5.57;;;;;;;;;;4912943;29;20052;-76
2023/04/12 00:18:15;;;;;;;12.02;5.20;;;;;;;;;;4911203;29;20055;-78
2023/04/12 00:20:41;;;;;;;12.73;5.13;;;;;;;;;;4910630;29;22550;-76
2023/04/12 00:23:12;;;;;;;10.65;5.30;;;;;;;;;;4914068;29;20537;-75
2023/04/12 00:25:39;;;;;;;13.32;5.32;;;;;;;;;;4925618;29;20058;-76
2023/04/12 00:28:05;;;;;;;10.52;5.53;;;;;;;;;;4924631;29;20076;-75
2023/04/12 00:30:32;;;;;;;10.73;5.55;;;;;;;;;;4928207;29;20044;-76
2023/04/12 00:32:58;;;;;;;12.07;5.22;;;;;;;;;;4925587;29;20119;-76
2023/04/12 00:35:25;;;;;;;9.93;5.47;;;;;;;;;;4916572;29;20048;-75
2023/04/12 00:37:51;;;;;;;15.20;5.35;;;;;;;;;;4914347;29;20107;-75
2023/04/12 00:40:18;;;;;;;14.45;5.13;;;;;;;;;;4914149;29;20357;-76
2023/04/12 00:42:45;;;;;;;16.08;4.82;;;;;;;;;;4914932;29;20088;-75
2023/04/12 00:45:12;;;;;;;10.13;4.95;;;;;;;;;;4912997;29;20047;-76
2023/04/12 00:47:41;;;;;;;11.10;4.97;;;;;;;;;;4910564;29;20054;-76
2023/04/12 00:50:09;;;;;;;14.70;5.38;;;;;;;;;;4895527;29;20122;-76
2023/04/12 00:52:36;;;;;;;10.63;4.55;;;;;;;;;;4912304;29;20048;-75
2023/04/12 00:55:04;;;;;;;10.77;4.72;;;;;;;;;;4911091;29;20076;-75
2023/04/12 00:57:36;;;;;;;10.75;5.28;;;;;;;;;;4896807;29;20078;-76
2023/04/12 01:00:11;;;;;;;11.48;4.47;;;;;;;;;;4898980;29;20072;-76
2023/04/12 01:02:38;;;;;;;;;;;;;;;;;;4916597;29;20047;-75
2023/04/12 01:05:05;;;;;;;14.30;4.55;;;;;;;;;;4903555;29;19923;-76
2023/04/12 01:07:50;;;;;;;10.77;4.40;;;;;;;;;;4896740;29;20075;-76
2023/04/12 01:10:17;;;;;;;12.13;4.45;;;;;;;;;;4894976;29;20455;-76
2023/04/12 01:13:05;;;;;;;8.43;4.28;;;;;;;;;;4895720;29;20391;-76
2023/04/12 01:15:35;;;;;;;13.95;4.80;;;;;;;;;;4879640;29;20061;-76
2023/04/12 01:18:08;;;;;;;8.88;4.50;;;;;;;;;;4894627;29;20040;-76
2023/04/12 01:20:50;;;;;;;12.30;5.03;;;;;;;;;;4896920;29;20045;-76
2023/04/12 01:23:35;;;;;;;13.50;4.72;;;;;;;;;;4917821;29;20162;-76
2023/04/12 01:26:22;;;;;;;12.40;4.60;;;;;;;;;;4928756;29;20048;-76
2023/04/12 01:28:52;;;;;;;9.68;4.63;;;;;;;;;;4932088;29;20111;-77
2023/04/12 01:31:20;;;;;;;10.60;4.28;;;;;;;;;;4934516;29;20043;-76
2023/04/12 01:33:50;;;;;;;8.82;4.07;;;;;;;;;;4934971;29;20220;-77
2023/04/12 01:36:19;;;;;;;12.88;4.70;;;;;;;;;;4937322;29;20078;-77
2023/04/12 01:38:47;;;;;;;14.05;4.60;;;;;;;;;;4929413;29;20057;-75
2023/04/12 01:41:14;;;;;;;10.73;4.75;;;;;;;;;;4932798;29;20075;-75
2023/04/12 01:43:44;;;;;;;8.77;4.40;;;;;;;;;;4917587;29;20040;-76
2023/04/12 01:46:12;;;;;;;13.15;4.32;;;;;;;;;;4934444;29;20052;-77
2023/04/12 01:48:38;;;;;;;12.40;4.60;;;;;;;;;;4933038;29;20078;-77
2023/04/12 01:51:06;;;;;;;8.32;4.25;;;;;;;;;;4933570;29;20051;-76
2023/04/12 01:53:46;;;;;;;6.85;4.13;;;;;;;;;;4930688;29;20110;-77
2023/04/12 01:56:15;;;;;;;13.77;4.85;;;;;;;;;;4934085;29;20047;-75
2023/04/12 01:58:44;;;;;;;9.13;4.57;;;;;;;;;;4931261;29;20043;-76
2023/04/12 02:01:12;;;;;;;12.48;4.68;;;;;;;;;;4932459;29;20040;-76
2023/04/12 02:03:41;;;;;;;12.10;4.50;;;;;;;;;;4915506;29;20337;-75
2023/04/12 02:06:08;;;;;;;11.77;4.40;;;;;;;;;;4933338;29;20469;-76
2023/04/12 02:08:35;;;;;;;12.40;4.95;;;;;;;;;;4929664;29;20070;-76
2023/04/12 02:11:06;;;;;;;9.57;4.65;;;;;;;;;;4931636;29;20048;-75
2023/04/12 02:13:33;;;;;;;8.80;4.55;;;;;;;;;;4932831;29;20091;-76
2023/04/12 02:16:01;;;;;;;10.70;4.38;;;;;;;;;;4932838;29;20130;-77
2023/04/12 02:18:34;;;;;;;10.25;4.32;;;;;;;;;;4930847;29;20255;-77
2023/04/12 02:21:01;;;;;;;11.13;4.60;;;;;;;;;;4934816;29;20047;-76
2023/04/12 02:23:29;;;;;;;11.70;4.75;;;;;;;;;;4928546;29;20052;-76
2023/04/12 02:26:00;;;;;;;9.57;4.47;;;;;;;;;;4919018;29;20044;-75
2023/04/12 02:28:27;;;;;;;10.32;4.60;;;;;;;;;;4915442;29;20051;-76
2023/04/12 02:30:54;;;;;;;9.23;4.45;;;;;;;;;;4916223;29;20465;-75
2023/04/12 02:33:24;;;;;;;11.77;4.88;;;;;;;;;;4932194;29;20111;-76
2023/04/12 02:35:52;;;;;;;9.45;4.57;;;;;;;;;;4931840;29;20173;-77
2023/04/12 02:38:19;;;;;;;12.15;4.05;;;;;;;;;;4929141;29;20040;-76
2023/04/12 02:40:46;;;;;;;8.43;3.95;;;;;;;;;;4931094;29;20058;-76
2023/04/12 02:43:16;;;;;;;10.20;4.20;;;;;;;;;;4914724;29;20051;-76
2023/04/12 02:45:46;;;;;;;12.50;4.53;;;;;;;;;;4931149;29;20110;-77
2023/04/12 02:48:13;;;;;;;13.55;4.47;;;;;;;;;;4930352;29;20053;-76
2023/04/12 02:50:40;;;;;;;9.48;4.78;;;;;;;;;;4916018;29;20044;-77
2023/04/12 02:53:16;;;;;;;11.60;4.93;;;;;;;;;;4929902;29;20063;-77
2023/04/12 02:55:47;;;;;;;8.05;4.20;;;;;;;;;;4915833;29;20043;-76
2023/04/12 02:58:19;;;;;;;9.63;4.47;;;;;;;;;;4931254;29;20043;-77
2023/04/12 03:00:49;;;;;;;11.30;4.25;;;;;;;;;;4916116;29;20075;-77
2023/04/12 03:03:22;;;;;;;10.02;4.50;;;;;;;;;;4930562;29;20063;-77
2023/04/12 03:05:54;;;;;;;11.35;5.03;;;;;;;;;;4930386;29;20059;-78
2023/04/12 03:08:21;;;;;;;16.40;4.68;;;;;;;;;;4927503;29;20102;-77
2023/04/12 03:10:54;;;;;;;9.60;4.68;;;;;;;;;;4930177;29;20074;-75
2023/04/12 03:13:24;;;;;;;9.60;4.55;;;;;;;;;;4930356;29;20044;-76
2023/04/12 03:15:57;;;;;;;11.43;4.75;;;;;;;;;;4929625;29;20078;-77
2023/04/12 03:18:30;;;;;;;11.60;5.00;;;;;;;;;;4913670;29;20147;-76
2023/04/12 03:20:57;;;;;;;11.48;4.68;;;;;;;;;;4929789;29;20051;-75
2023/04/12 03:23:24;;;;;;;12.43;5.15;;;;;;;;;;4919841;29;20064;-77
2023/04/12 03:26:03;;;;;;;11.13;4.93;;;;;;;;;;4926956;29;20050;-77
2023/04/12 03:28:33;;;;;;;10.85;4.88;;;;;;;;;;4913220;29;20043;-77
2023/04/12 03:31:03;;;;;;;11.75;4.55;;;;;;;;;;4929864;29;20040;-76
2023/04/12 03:33:38;;;;;;;13.70;5.07;;;;;;;;;;4915097;29;20194;-75
2023/04/12 03:36:08;;;;;;;13.25;5.05;;;;;;;;;;4930087;29;20043;-77
2023/04/12 03:38:35;;;;;;;12.32;5.25;;;;;;;;;;4926487;29;20508;-77
2023/04/12 03:41:03;;;;;;;12.63;4.57;;;;;;;;;;4930289;29;20527;-77
2023/04/12 03:43:36;;;;;;;13.00;4.30;;;;;;;;;;4929461;29;20048;-76
2023/04/12 03:46:10;;;;;;;9.60;4.30;;;;;;;;;;4931021;29;20055;-77
2023/04/12 03:48:37;;;;;;;14.00;4.63;;;;;;;;;;4929571;29;20512;-76
2023/04/12 03:51:07;;;;;;;8.18;4.00;;;;;;;;;;4930285;29;20417;-76
2023/04/12 03:53:37;;;;;;;12.23;3.80;;;;;;;;;;4927872;29;20051;-77
2023/04/12 03:56:04;;;;;;;9.45;4.35;;;;;;;;;;4913720;29;20078;-76
2023/04/12 03:58:32;;;;;;;10.98;4.35;;;;;;;;;;4931201;29;20272;-77
2023/04/12 04:01:04;;;;;;;11.80;4.50;;;;;;;;;;4921030;29;20055;-76
2023/04/12 04:03:35;;;;;;;10.75;4.00;;;;;;;;;;4910141;29;20047;-75
2023/04/12 04:06:23;;;;;;;13.00;3.83;;;;;;;;;;4930479;29;20123;-76
2023/04/12 04:08:56;;;;;;;9.68;3.45;;;;;;;;;;4926979;29;20123;-76
2023/04/12 04:11:24;;;;;;;11.10;3.70;;;;;;;;;;4929700;29;20052;-76
2023/04/12 04:13:56;;;;;;;10.27;3.78;;;;;;;;;;4930234;29;20051;-77
2023/04/12 04:16:23;;;;;;;12.35;4.15;;;;;;;;;;4931143;29;20070;-76
2023/04/12 04:18:51;;;;;;;10.32;3.88;;;;;;;;;;4929744;29;20087;-76
2023/04/12 04:21:21;;;;;;;6.90;3.25;;;;;;;;;;4912972;29;20044;-76
2023/04/12 04:23:53;;;;;;;8.75;3.78;;;;;;;;;;4900548;29;20048;-76
2023/04/12 04:26:32;;;;;;;11.27;3.78;;;;;;;;;;4927555;29;20047;-76
2023/04/12 04:29:22;;;;;;;8.50;3.25;;;;;;;;;;4923410;29;20044;-75
2023/04/12 04:31:49;;;;;;;11.50;4.13;;;;;;;;;;4912851;29;20048;-76
2023/04/12 04:34:17;;;;;;;10.95;3.85;;;;;;;;;;4915878;29;20039;-76
2023/04/12 04:36:46;;;;;;;9.20;3.72;;;;;;;;;;4932935;29;20048;-77
2023/04/12 04:39:20;;;;;;;8.00;3.53;;;;;;;;;;4913981;29;20398;-76
2023/04/12 04:41:53;;;;;;;15.32;3.85;;;;;;;;;;4933361;29;20125;-76
2023/04/12 04:44:37;;;;;;;11.90;3.97;;;;;;;;;;4917472;29;20130;-76
2023/04/12 04:47:08;;;;;;;9.30;4.00;;;;;;;;;;4933869;29;20055;-76
2023/04/12 04:49:36;;;;;;;8.55;3.63;;;;;;;;;;4931231;29;20075;-77
2023/04/12 04:52:14;;;;;;;11.82;3.63;;;;;;;;;;4917274;29;20054;-76
2023/04/12 04:54:41;;;;;;;15.40;4.25;;;;;;;;;;4915780;29;20091;-77
2023/04/12 04:57:10;;;;;;;10.13;3.80;;;;;;;;;;4933813;29;20062;-76
2023/04/12 04:59:38;;;;;;;11.88;3.47;;;;;;;;;;4933082;29;20456;-77
2023/04/12 05:02:12;;;;;;;10.38;3.35;;;;;;;;;;4933075;29;20051;-77
2023/04/12 05:04:39;;;;;;;8.48;3.13;;;;;;;;;;4930467;29;20516;-75
2023/04/12 05:07:08;;;;;;;6.35;2.78;;;;;;;;;;4930937;29;20068;-77
2023/04/12 05:09:34;;;;;;;7.50;2.50;;;;;;;;;;4911885;29;20071;-76
2023/04/12 05:12:01;;;;;;;7.80;2.75;;;;;;;;;;4931034;29;20138;-76
2023/04/12 05:14:28;;;;;;;8.98;3.05;;;;;;;;;;4931370;29;20044;-76
2023/04/12 05:17:11;;;;;;;9.93;2.97;;;;;;;;;;4930772;29;20366;-77
2023/04/12 05:19:39;;;;;;;12.50;3.50;;;;;;;;;;4912614;29;20040;-77
2023/04/12 05:22:08;;;;;;;9.93;3.00;;;;;;;;;;4927699;29;20116;-76
2023/04/12 05:24:36;;;;;;;7.93;3.10;;;;;;;;;;4919511;29;20063;-77
2023/04/12 05:27:02;;;;;;;8.10;2.78;;;;;;;;;;4925847;29;20052;-77
2023/04/12 05:29:32;;;;;;;9.43;3.08;;;;;;;;;;4894835;29;20044;-77
2023/04/12 05:31:59;;;;;;;8.20;2.72;;;;;;;;;;4926656;29;20036;-77
2023/04/12 05:34:29;;;;;;;8.20;2.80;;;;;;;;;;4910354;29;20589;-77
2023/04/12 05:36:56;;;;;;;8.35;2.60;;;;;;;;;;4926650;29;20048;-76
2023/04/12 05:39:22;;;;;;;8.00;2.40;;;;;;;;;;4923116;29;20072;-76
2023/04/12 05:41:50;;;;;;;10.35;2.72;;;;;;;;;;4920728;29;20051;-77
2023/04/12 05:44:17;;;;;;;6.47;2.58;;;;;;;;;;4924936;29;20115;-76
2023/04/12 05:46:43;;;;;;;6.10;2.72;;;;;;;;;;4920304;29;20308;-77
2023/04/12 05:49:11;;;;;;;6.15;2.47;;;;;;;;;;4902829;29;20107;-76
2023/04/12 05:51:37;;;;;;;11.18;2.92;;;;;;;;;;4918224;29;20075;-76
2023/04/12 05:54:19;;;;;;;12.20;3.33;;;;;;;;;;4921950;29;20115;-77
2023/04/12 05:56:47;;;;;;;10.82;2.85;;;;;;;;;;4918547;29;20135;-76
2023/04/12 05:59:15;;;;;;;11.50;3.08;;;;;;;;;;4903290;29;20059;-76
2023/04/12 06:01:43;;;;;;;7.63;2.67;;;;;;;;;;4904111;29;20115;-75
2023/04/12 06:04:11;;;;;;;10.32;3.13;;;;;;;;;;4919092;29;20051;-75
2023/04/12 06:06:38;;;;;;;11.13;3.03;;;;;;;;;;4925516;29;20048;-75
2023/04/12 06:09:05;;;;;;;10.98;2.78;;;;;;;;;;4925240;29;20054;-75
2023/04/12 06:11:34;;;;;;;12.98;3.22;;;;;;;;;;4929367;29;20042;-76
2023/04/12 06:14:01;;;;;;;9.07;2.88;;;;;;;;;;4929261;29;20099;-75
2023/04/12 06:16:28;;;;;;;15.32;3.15;;;;;;;;;;4930218;29;20065;-77
2023/04/12 06:18:55;;;;;;;10.60;2.90;;;;;;;;;;4928567;29;20519;-77
2023/04/12 06:21:23;;;;;;;9.80;2.80;;;;;;;;;;4912899;29;20047;-77
2023/04/12 06:23:50;;;;;;;8.35;2.70;;;;;;;;;;4919635;29;20103;-76
2023/04/12 06:26:17;;;;;;;5.93;2.40;;;;;;;;;;4920286;29;20048;-75
2023/04/12 06:28:44;;;;;;;7.70;2.20;;;;;;;;;;4926938;29;20044;-77
2023/04/12 06:31:11;;;;;;;9.55;2.80;;;;;;;;;;4926428;29;20041;-77
2023/04/12 06:33:39;;;;;;;9.75;2.50;;;;;;;;;;4907775;29;20055;-78
2023/04/12 06:36:08;;;;;;;11.35;2.40;;;;;;;;;;4907906;29;20080;-77
2023/04/12 06:38:35;;;;;;;6.75;1.92;;;;;;;;;;4915471;29;20044;-77
2023/04/12 06:41:02;;;;;;;9.70;2.65;;;;;;;;;;4916688;29;20036;-75
2023/04/12 06:43:29;;;;;;;6.10;2.30;;;;;;;;;;4919728;29;20072;-77
2023/04/12 06:45:55;;;;;;;6.18;2.05;;;;;;;;;;4924651;29;20043;-77
2023/04/12 06:48:22;;;;;;;6.47;2.42;;;;;;;;;;4906012;29;20044;-75
2023/04/12 06:50:49;;;;;;;9.77;2.40;;;;;;;;;;4926309;29;20100;-76
2023/04/12 06:53:15;;;;;;;8.57;2.47;;;;;;;;;;4917416;29;20044;-77
2023/04/12 06:55:42;;;;;;;13.63;2.45;;;;;;;;;;4925614;29;20361;-76
2023/04/12 06:58:09;;;;;;;7.82;2.35;;;;;;;;;;4910018;29;20112;-75
2023/04/12 07:00:36;;;;;;;8.02;2.40;;;;;;;;;;4914049;29;20055;-76
2023/04/12 07:03:03;;;;;;;5.45;2.03;;;;;;;;;;4912387;29;20090;-79
2023/04/12 07:05:30;;;;;;;7.70;2.10;;;;;;;;;;4917806;29;20528;-74
2023/04/12 07:07:57;;;;;;;9.48;2.05;;;;;;;;;;4911395;29;20344;-74
2023/04/12 07:10:23;;;;;;;5.10;1.90;;;;;;;;;;4920880;29;20048;-76
2023/04/12 07:12:52;;;;;;;9.63;2.10;;;;;;;;;;4917517;29;20052;-75
2023/04/12 07:15:19;;;;;;;7.90;2.20;;;;;;;;;;4915785;29;20063;-75
2023/04/12 07:17:46;;;;;;;6.75;2.15;;;;;;;;;;4899750;29;20064;-75
2023/04/12 07:20:13;;;;;;;8.90;2.00;;;;;;;;;;4915185;29;20236;-75
2023/04/12 07:22:40;;;;;;;5.68;1.92;;;;;;;;;;4905349;29;20429;-75
2023/04/12 07:25:09;;;;;;;8.82;2.40;;;;;;;;;;4913522;29;20488;-75
2023/04/12 07:27:40;;;;;;;5.28;1.95;;;;;;;;;;4908421;29;20158;-75
2023/04/12 07:30:07;;;;;;;9.35;2.60;;;;;;;;;;4915959;29;20048;-75
2023/04/12 07:32:34;;;;;;;8.50;2.83;;;;;;;;;;4915165;29;20051;-77
2023/04/12 07:35:01;;;;;;;11.00;1.75;;;;;;;;;;4910871;29;20143;-76
2023/04/12 07:37:28;;;;;;;7.22;2.50;;;;;;;;;;4906774;29;20058;-76
2023/04/12 07:39:55;;;;;;;10.88;2.55;;;;;;;;;;4902719;29;20732;-76
2023/04/12 07:42:22;;;;;;;6.43;1.42;;;;;;;;;;4908237;29;20040;-77
2023/04/12 07:44:50;;;;;;;7.25;1.77;;;;;;;;;;4906639;29;20525;-77
2023/04/12 07:47:17;;;;;;;9.93;1.73;;;;;;;;;;4907152;29;20048;-77
2023/04/12 07:49:44;;;;;;;6.13;1.38;;;;;;;;;;4905738;29;20060;-76
2023/04/12 07:52:11;;;;;;;9.32;1.50;;;;;;;;;;4910235;29;20051;-77
2023/04/12 07:54:37;;;;;;;5.78;1.02;;;;;;;;;;4919131;29;20481;-77
2023/04/12 07:57:04;;;;;;;8.65;1.40;;;;;;;;;;4913363;29;20052;-77
2023/04/12 07:59:31;;;;;;;3.33;1.00;;;;;;;;;;4914206;29;20322;-77
2023/04/12 08:01:58;;;;;;;4.45;1.17;;;;;;;;;;4906189;29;20040;-77
2023/04/12 08:04:27;;;;;;;3.40;1.08;;;;;;;;;;4901220;29;20044;-78
2023/04/12 08:06:55;;;;;;;6.97;1.10;;;;;;;;;;4913406;29;20829;-77
2023/04/12 08:09:23;;;;;;;3.03;1.08;;;;;;;;;;4895483;29;20123;-77
2023/04/12 08:11:51;;;;;;;4.93;0.93;;;;;;;;;;4909043;29;20062;-76
2023/04/12 08:14:18;;;;;;;5.80;1.10;;;;;;;;;;4906437;29;20095;-77
2023/04/12 08:16:45;;;;;;;5.85;1.10;;;;;;;;;;4904816;29;20524;-76
2023/04/12 08:19:13;;;;;;;4.13;0.90;;;;;;;;;;4886722;29;20078;-77
2023/04/12 08:21:40;;;;;;;5.50;1.17;;;;;;;;;;4895537;29;20087;-77
2023/04/12 08:24:08;;;;;;;4.32;1.20;;;;;;;;;;4909619;29;20206;-76
2023/04/12 08:26:34;;;;;;;4.13;1.10;;;;;;;;;;4906794;29;20045;-77
2023/04/12 08:29:02;;;;;;;5.50;1.13;;;;;;;;;;4895566;29;20056;-76
2023/04/12 08:31:28;;;;;;;6.65;1.10;;;;;;;;;;4886394;29;20047;-76
2023/04/12 08:33:55;;;;;;;4.13;0.85;;;;;;;;;;4903132;29;20319;-76
2023/04/12 08:36:23;;;;;;;6.75;1.10;;;;;;;;;;4904098;29;20056;-77
2023/04/12 08:38:51;;;;;;;7.38;1.00;;;;;;;;;;4900006;29;20056;-76
2023/04/12 08:41:21;;;;;;;9.23;1.05;;;;;;;;;;4913808;29;20374;-77
2023/04/12 08:43:48;;;;;;;6.38;1.10;;;;;;;;;;4904527;29;20150;-77
2023/04/12 08:46:15;;;;;;;6.55;1.45;;;;;;;;;;4901736;29;20048;-77
2023/04/12 08:48:44;;;;;;;7.00;1.23;;;;;;;;;;4903697;29;20516;-77
2023/04/12 08:51:15;;;;;;;3.92;0.90;;;;;;;;;;4903407;29;20040;-77
2023/04/12 08:53:43;;;;;;;5.63;1.17;;;;;;;;;;4903154;29;20056;-75
2023/04/12 08:56:11;;;;;;;8.07;1.23;;;;;;;;;;4903983;29;20469;-77
2023/04/12 08:58:38;;;;;;;5.55;1.10;;;;;;;;;;4903704;29;20062;-76
2023/04/12 09:01:07;;;;;;;5.47;0.98;;;;;;;;;;4905692;29;20056;-75
2023/04/12 09:03:35;;;;;;;4.72;1.20;;;;;;;;;;4905611;29;20095;-76
2023/04/12 09:06:02;;;;;;;7.20;1.50;;;;;;;;;;4905083;29;20078;-76
2023/04/12 09:08:29;;;;;;;5.30;1.08;;;;;;;;;;4903293;29;20447;-75
2023/04/12 09:10:56;;;;;;;4.20;0.90;;;;;;;;;;4905017;29;20084;-75
2023/04/12 09:13:34;;;;;;;6.75;1.35;;;;;;;;;;4905944;29;20233;-76
2023/04/12 09:16:00;;;;;;;6.05;1.40;;;;;;;;;;4905903;29;20063;-75
2023/04/12 09:18:28;;;;;;;6.75;1.15;;;;;;;;;;4888542;29;20048;-75
2023/04/12 09:21:07;;;;;;;5.55;1.30;;;;;;;;;;4908007;29;20059;-76
2023/04/12 09:23:35;;;;;;;10.98;1.05;;;;;;;;;;4910364;29;20435;-75
2023/04/12 09:26:02;;;;;;;9.57;1.38;;;;;;;;;;4911034;29;20547;-75
2023/04/12 09:28:29;;;;;;;6.35;1.10;;;;;;;;;;4907542;29;20119;-75
2023/04/12 09:30:58;;;;;;;7.82;1.10;;;;;;;;;;4910028;29;20721;-77
2023/04/12 09:33:34;;;;;;;3.78;1.10;;;;;;;;;;4908246;29;20052;-75
2023/04/12 09:36:02;;;;;;;4.63;1.40;;;;;;;;;;4908617;29;20088;-75
2023/04/12 09:38:30;;;;;;;12.45;1.55;;;;;;;;;;4906631;29;20460;-75
2023/04/12 09:40:56;;;;;;;5.57;1.13;;;;;;;;;;4901728;29;20151;-77
2023/04/12 09:43:36;;;;;;;6.50;1.30;;;;;;;;;;4906934;29;20059;-77
2023/04/12 09:46:11;;;;;;;4.25;1.10;;;;;;;;;;4908299;29;20638;-75
2023/04/12 09:48:39;;;;;;;6.28;1.60;;;;;;;;;;4906879;29;20088;-75
2023/04/12 09:51:06;;;;;;;5.95;1.33;;;;;;;;;;4908164;29;20135;-75
2023/04/12 09:53:37;;;;;;;5.47;0.90;;;;;;;;;;4906643;29;20048;-76
2023/04/12 09:56:07;;;;;;;5.35;1.23;;;;;;;;;;4909651;29;20437;-76
2023/04/12 09:58:35;;;;;;;11.20;1.27;;;;;;;;;;4907539;29;20127;-75
2023/04/12 10:01:02;;;;;;;5.95;1.23;;;;;;;;;;4911107;29;20072;-75
2023/04/12 10:03:29;;;;;;;7.78;1.13;;;;;;;;;;4894065;29;20055;-76
2023/04/12 10:05:58;;;;;;;5.10;1.10;;;;;;;;;;4905673;29;20085;-75
2023/04/12 10:08:26;;;;;;;6.88;1.40;;;;;;;;;;4885918;29;20123;-75
2023/04/12 10:10:53;;;;;;;5.88;1.38;;;;;;;;;;4900823;29;20436;-76
2023/04/12 10:13:21;;;;;;;9.02;1.70;;;;;;;;;;4908773;29;20556;-76
2023/04/12 10:15:51;;;;;;;5.20;1.33;;;;;;;;;;4908742;29;20112;-75
2023/04/12 10:18:19;;;;;;;8.05;1.25;;;;;;;;;;4912312;29;20508;-76
2023/04/12 10:20:46;;;;;;;4.80;1.10;;;;;;;;;;4906659;29;20102;-74
2023/04/12 10:23:16;;;;;;;2.92;0.95;;;;;;;;;;4915938;29;20044;-76
2023/04/12 10:25:45;;;;;;;7.00;1.50;;;;;;;;;;4920173;29;20060;-75
2023/04/12 10:28:13;;;;;;;6.03;1.30;;;;;;;;;;4913645;29;20052;-76
2023/04/12 10:30:40;;;;;;;5.93;1.10;;;;;;;;;;4887795;29;20532;-76
2023/04/12 10:33:13;;;;;;;6.13;1.30;;;;;;;;;;4898623;29;20045;-77
2023/04/12 10:35:53;;;;;;;3.40;1.23;;;;;;;;;;4904895;29;20058;-76
2023/04/12 10:38:22;;;;;;;6.03;1.10;;;;;;;;;;4893765;29;20374;-77
2023/04/12 10:41:14;;;;;;;3.80;0.90;;;;;;;;;;4920325;29;20131;-76
2023/04/12 10:43:42;;;;;;;5.68;1.40;;;;;;;;;;4908270;29;20054;-77
2023/04/12 10:46:29;;;;;;;4.72;1.08;;;;;;;;;;4908270;29;20041;-76
2023/04/12 10:48:56;;;;;;;7.60;1.30;;;;;;;;;;4883593;29;20107;-76
2023/04/12 10:51:27;;;;;;;3.20;1.20;;;;;;;;;;4891075;29;20102;-77
2023/04/12 10:54:20;;;;;;;;;;;;;;;;;;4904216;29;20051;-77
2023/04/12 10:56:48;;;;;;;6.15;1.35;;;;;;;;;;4907123;29;19949;-75
2023/04/12 10:59:21;;;;;;;3.47;1.10;;;;;;;;;;4905096;29;20044;-77
2023/04/12 11:02:03;;;;;;;2.67;0.85;;;;;;;;;;4905895;29;20054;-77
2023/04/12 11:04:31;;;;;;;4.93;1.23;;;;;;;;;;4907322;29;20043;-75
2023/04/12 11:07:08;;;;;;;5.90;1.75;;;;;;;;;;4891307;29;20052;-77
2023/04/12 11:09:47;;;;;;;5.45;1.35;;;;;;;;;;4904447;29;20071;-76
2023/04/12 11:12:28;;;;;;;4.53;0.98;;;;;;;;;;4912930;29;20054;-76
2023/04/12 11:15:00;;;;;;;5.68;1.08;;;;;;;;;;4916221;29;20143;-76
2023/04/12 11:17:39;;;;;;;5.60;1.10;;;;;;;;;;4906245;29;20059;-74
2023/04/12 11:20:10;;;;;;;5.55;1.15;;;;;;;;;;4913326;29;20051;-76
2023/04/12 11:22:39;;;;;;;5.90;1.00;;;;;;;;;;4917698;29;20101;-74
2023/04/12 11:25:07;;;;;;;6.28;1.08;;;;;;;;;;4917407;29;20111;-76
2023/04/12 11:27:36;;;;;;;5.05;1.17;;;;;;;;;;4885385;29;20116;-75
2023/04/12 11:30:05;;;;;;;6.63;1.00;;;;;;;;;;4906487;29;20139;-76
2023/04/12 11:32:35;;;;;;;5.53;1.27;;;;;;;;;;4889467;29;20055;-75
2023/04/12 11:35:01;;;;;;;6.03;1.20;;;;;;;;;;4905899;29;20465;-76
2023/04/12 11:37:34;;;;;;;3.25;1.05;;;;;;;;;;4890326;29;20154;-75
2023/04/12 11:40:04;;;;;;;2.72;0.98;;;;;;;;;;4893909;29;20051;-77
2023/04/12 11:42:31;;;;;;;3.83;1.10;;;;;;;;;;4915388;29;20066;-75
2023/04/12 11:44:58;;;;;;;3.10;1.10;;;;;;;;;;4907195;29;20058;-76
2023/04/12 11:47:40;;;;;;;3.45;1.10;;;;;;;;;;4908906;29;20058;-74
2023/04/12 11:50:07;;;;;;;3.15;0.93;;;;;;;;;;4904799;29;20381;-76
2023/04/12 11:52:34;;;;;;;5.22;1.30;;;;;;;;;;4914525;29;20056;-76
2023/04/12 11:55:03;;;;;;;6.35;1.23;;;;;;;;;;4904956;29;20039;-75
2023/04/12 11:57:32;;;;;;;3.40;1.17;;;;;;;;;;4899354;29;20044;-76
2023/04/12 12:00:00;;;;;;;3.28;0.90;;;;;;;;;;4873131;29;20063;-75
2023/04/12 12:02:26;;;;;;;5.00;1.13;;;;;;;;;;4906320;29;20060;-75
2023/04/12 12:05:01;;;;;;;3.63;1.15;;;;;;;;;;4913434;29;20052;-75
2023/04/12 12:07:28;;;;;;;3.38;1.10;;;;;;;;;;4915786;29;20512;-74
2023/04/12 12:09:55;;;;;;;2.40;1.00;;;;;;;;;;4909513;29;20112;-75
2023/04/12 12:12:26;;;;;;;4.38;1.05;;;;;;;;;;4915630;29;20615;-74
2023/04/12 12:14:58;;;;;;;3.10;0.80;;;;;;;;;;4905022;29;20082;-75
2023/04/12 12:17:26;;;;;;;2.72;0.98;;;;;;;;;;4910909;29;20286;-75
2023/04/12 12:19:55;;;;;;;2.72;1.17;;;;;;;;;;4909329;29;20486;-76
2023/04/12 12:22:22;;;;;;;3.03;0.98;;;;;;;;;;4917949;29;20048;-76
2023/04/12 12:24:54;;;;;;;5.45;0.80;;;;;;;;;;4907530;29;20055;-74
2023/04/12 12:27:22;;;;;;;3.20;1.00;;;;;;;;;;4917874;29;20128;-74
2023/04/12 12:29:50;;;;;;;2.70;0.95;;;;;;;;;;4894472;29;20417;-74
2023/04/12 12:32:17;;;;;;;4.00;0.93;;;;;;;;;;4909493;29;20465;-73
2023/04/12 12:34:53;;;;;;;3.33;0.95;;;;;;;;;;4891765;29;20754;-74
2023/04/12 12:37:22;;;;;;;4.10;0.95;;;;;;;;;;4907722;29;20055;-76
2023/04/12 12:39:58;;;;;;;3.47;1.02;;;;;;;;;;4903643;29;20410;-77
2023/04/12 12:42:26;;;;;;;4.68;1.13;;;;;;;;;;4909813;29;20059;-74
2023/04/12 12:44:52;;;;;;;4.70;1.20;;;;;;;;;;4893661;29;20171;-75
2023/04/12 12:47:19;;;;;;;8.15;1.35;;;;;;;;;;4911123;29;20155;-77
2023/04/12 12:49:45;;;;;;;4.75;1.00;;;;;;;;;;4889664;29;20044;-75
2023/04/12 12:52:14;;;;;;;5.43;0.70;;;;;;;;;;4907084;29;20075;-75
2023/04/12 12:54:43;;;;;;;2.67;0.70;;;;;;;;;;4911076;29;20147;-76
2023/04/12 12:57:10;;;;;;;2.45;0.80;;;;;;;;;;4915264;29;20052;-74
2023/04/12 12:59:38;;;;;;;2.13;0.73;;;;;;;;;;4913308;29;20119;-76
2023/04/12 13:02:05;;;;;;;1.80;0.90;;;;;;;;;;4918194;29;20515;-76
2023/04/12 13:04:35;;;;;;;2.70;0.80;;;;;;;;;;4910094;29;20052;-76
2023/04/12 13:07:01;;;;;;;2.80;1.15;;;;;;;;;;4912774;29;20066;-74
2023/04/12 13:09:30;;;;;;;1.90;0.90;;;;;;;;;;4908356;29;20056;-75
2023/04/12 13:11:56;;;;;;;2.55;1.10;;;;;;;;;;4908991;29;20127;-75
2023/04/12 13:14:23;;;;;;;3.20;1.20;;;;;;;;;;4910790;29;20432;-75
2023/04/12 13:16:50;;;;;;;2.45;1.00;;;;;;;;;;4909605;29;20636;-75
2023/04/12 13:19:17;;;;;;;5.28;1.25;;;;;;;;;;4908400;29;20071;-78
2023/04/12 13:21:44;;;;;;;3.13;1.17;;;;;;;;;;4913883;29;20102;-76
2023/04/12 13:24:11;;;;;;;2.40;0.80;;;;;;;;;;4914550;29;20040;-76
2023/04/12 13:26:37;;;;;;;2.83;1.05;;;;;;;;;;4908240;29;20661;-76
2023/04/12 13:29:05;;;;;;;3.42;1.15;;;;;;;;;;4901278;29;20048;-76
2023/04/12 13:31:33;;;;;;;6.10;1.10;;;;;;;;;;4908706;29;20054;-77
2023/04/12 13:34:00;;;;;;;2.88;1.00;;;;;;;;;;4909374;29;20052;-76
2023/04/12 13:36:27;;;;;;;3.75;1.27;;;;;;;;;;4907092;29;20051;-76
2023/04/12 13:38:55;;;;;;;4.65;1.27;;;;;;;;;;4906230;29;20198;-75
2023/04/12 13:41:22;;;;;;;2.10;1.23;;;;;;;;;;4908869;29;20131;-75
2023/04/12 13:43:48;;;;;;;3.72;1.20;;;;;;;;;;4908210;29;20142;-77
2023/04/12 13:46:18;;;;;;;4.20;1.05;;;;;;;;;;4913915;29;20079;-75
2023/04/12 13:48:45;;;;;;;2.95;0.90;;;;;;;;;;4919303;29;20060;-76
2023/04/12 13:51:13;;;;;;;6.20;1.23;;;;;;;;;;4914817;29;20269;-75
2023/04/12 13:53:40;;;;;;;5.75;1.42;;;;;;;;;;4909928;29;20493;-76
2023/04/12 13:56:07;;;;;;;3.40;1.40;;;;;;;;;;4890685;29;20108;-77
2023/04/12 13:58:34;;;;;;;3.35;1.40;;;;;;;;;;4895981;29;20107;-76
2023/04/12 14:01:04;;;;;;;2.70;1.30;;;;;;;;;;4907265;29;20131;-75
2023/04/12 14:03:32;;;;;;;4.45;1.40;;;;;;;;;;4908560;29;20052;-77
2023/04/12 14:06:00;;;;;;;2.38;1.20;;;;;;;;;;4907655;29;20063;-77
2023/04/12 14:08:27;;;;;;;2.13;1.08;;;;;;;;;;4905973;29;20576;-76
2023/04/12 14:10:54;;;;;;;4.63;1.50;;;;;;;;;;4908190;29;20547;-76
2023/04/12 14:13:21;;;;;;;4.63;0.95;;;;;;;;;;4905470;29;20074;-76
2023/04/12 14:15:51;;;;;;;3.20;0.98;;;;;;;;;;4909664;29;20131;-77
2023/04/12 14:18:18;;;;;;;5.97;1.45;;;;;;;;;;4909054;29;20052;-78
2023/04/12 14:20:48;;;;;;;1.48;0.90;;;;;;;;;;4898165;29;20051;-77
2023/04/12 14:23:15;;;;;;;5.00;1.10;;;;;;;;;;4915986;29;20102;-77
2023/04/12 14:25:43;;;;;;;1.40;0.82;;;;;;;;;;4916554;29;20103;-76
2023/04/12 14:28:09;;;;;;;2.65;0.90;;;;;;;;;;4905713;29;20393;-76
2023/04/12 14:30:36;;;;;;;2.33;0.90;;;;;;;;;;4923371;29;20527;-76
2023/04/12 14:33:02;;;;;;;3.80;1.05;;;;;;;;;;4923946;29;20048;-77
2023/04/12 14:35:29;;;;;;;2.47;0.73;;;;;;;;;;4921227;29;20058;-76
2023/04/12 14:37:58;;;;;;;2.60;1.15;;;;;;;;;;4882347;29;20539;-78
2023/04/12 14:40:25;;;;;;;4.10;1.13;;;;;;;;;;4912656;29;20051;-77
2023/04/12 14:42:52;;;;;;;1.27;0.90;;;;;;;;;;4917748;29;20091;-77
2023/04/12 14:45:21;;;;;;;3.42;1.13;;;;;;;;;;4922311;29;20039;-84
2023/04/12 14:47:47;;;;;;;3.67;1.02;;;;;;;;;;4910552;29;20058;-77
2023/04/12 14:50:15;;;;;;;7.05;1.00;;;;;;;;;;4909289;29;20048;-77
2023/04/12 14:52:44;;;;;;;5.55;1.00;;;;;;;;;;4890219;29;20211;-75